WAMA/GLX METAR and TAF weather

Enter ICAO airport designator
Station Type Date Time Source
WAMA METAR UTC NOAA

Error!


Station Type Date Time Source
WAMA Decoded METAR UTC NOAA

Error!

Station Type Date Time Source
WAMA TAF 2014/03/31 18:15 UTC NOAA

TAF WAMA 311700Z 3118/0106 00000KT 9000 SCT015
BECMG 0101/0103 36007KT


Example: see airport list